createdAt,value
2018-12-24T00:00:33.994Z,7.60
2018-12-24T00:03:02.611Z,7.60
2018-12-24T00:05:31.258Z,7.60
2018-12-24T00:07:59.799Z,7.60
2018-12-24T00:10:30.005Z,7.60
2018-12-24T00:12:58.663Z,7.60
2018-12-24T00:15:27.230Z,7.60
2018-12-24T00:17:55.819Z,7.60
2018-12-24T00:20:24.470Z,7.50
2018-12-24T00:22:53.166Z,7.50
2018-12-24T00:25:21.761Z,7.50
2018-12-24T00:27:50.414Z,7.60
2018-12-24T00:30:19.015Z,7.50
2018-12-24T00:32:47.613Z,7.60
2018-12-24T00:35:16.399Z,7.50
2018-12-24T00:37:44.987Z,7.50
2018-12-24T00:40:13.584Z,7.40
2018-12-24T00:42:42.299Z,7.30
2018-12-24T00:45:11.968Z,7.40
2018-12-24T00:47:40.641Z,7.30
2018-12-24T00:50:09.226Z,7.50
2018-12-24T00:52:37.813Z,7.50
2018-12-24T00:55:09.694Z,7.50
2018-12-24T00:57:38.291Z,7.50
2018-12-24T01:00:06.953Z,7.50
2018-12-24T01:02:35.565Z,7.40
2018-12-24T01:05:04.243Z,7.50
2018-12-24T01:07:32.927Z,7.50
2018-12-24T01:10:01.495Z,7.50
2018-12-24T01:12:30.069Z,7.50
2018-12-24T01:14:58.770Z,7.50
2018-12-24T01:17:27.360Z,7.50
2018-12-24T01:19:55.922Z,7.50
2018-12-24T01:22:24.540Z,7.60
2018-12-24T01:24:53.144Z,7.60
2018-12-24T01:27:21.759Z,7.60
2018-12-24T01:29:50.319Z,7.40
2018-12-24T01:32:18.892Z,7.60
2018-12-24T01:34:47.480Z,7.60
2018-12-24T01:37:16.156Z,7.40
2018-12-24T01:39:44.794Z,7.50
2018-12-24T01:42:13.421Z,7.60
2018-12-24T01:44:42.029Z,7.50
2018-12-24T01:47:10.641Z,7.60
2018-12-24T01:49:39.230Z,7.50
2018-12-24T01:52:07.868Z,7.50
2018-12-24T01:54:38.454Z,7.50
2018-12-24T01:57:09.270Z,7.60
2018-12-24T01:59:37.817Z,7.60
2018-12-24T02:02:06.486Z,7.70
2018-12-24T02:04:35.052Z,7.70
2018-12-24T02:07:03.675Z,7.60
2018-12-24T02:09:32.313Z,7.70
2018-12-24T02:12:01.007Z,7.70
2018-12-24T02:14:29.641Z,7.70
2018-12-24T02:16:58.294Z,7.60
2018-12-24T02:19:26.906Z,7.70
2018-12-24T02:21:55.492Z,7.70
2018-12-24T02:24:24.052Z,7.70
2018-12-24T02:26:52.647Z,7.70
2018-12-24T02:29:21.218Z,7.70
2018-12-24T02:31:49.790Z,7.70
2018-12-24T02:34:18.446Z,7.70
2018-12-24T02:36:47.030Z,7.70
2018-12-24T02:39:16.799Z,7.40
2018-12-24T02:41:45.442Z,7.50
2018-12-24T02:44:14.077Z,7.50
2018-12-24T02:46:42.673Z,7.60
2018-12-24T02:49:11.257Z,7.60
2018-12-24T02:51:42.788Z,7.40
2018-12-24T02:54:11.352Z,7.50
2018-12-24T02:56:40.005Z,7.60
2018-12-24T02:59:08.598Z,7.50
2018-12-24T03:01:37.311Z,7.50
2018-12-24T03:04:06.370Z,7.60
2018-12-24T03:06:35.012Z,7.50
2018-12-24T03:09:04.458Z,7.40
2018-12-24T03:11:33.016Z,7.40
2018-12-24T03:14:01.694Z,7.50
2018-12-24T03:16:31.391Z,7.50
2018-12-24T03:18:59.968Z,7.60
2018-12-24T03:21:28.567Z,7.50
2018-12-24T03:23:57.147Z,7.50
2018-12-24T03:26:25.801Z,7.50
2018-12-24T03:28:54.421Z,7.40
2018-12-24T03:31:23.127Z,7.40
2018-12-24T03:33:51.777Z,7.50
2018-12-24T03:36:20.569Z,7.40
2018-12-24T03:38:49.221Z,7.30
2018-12-24T03:41:17.948Z,7.30
2018-12-24T03:43:46.721Z,7.30
2018-12-24T03:46:15.612Z,7.30
2018-12-24T03:48:44.367Z,7.30
2018-12-24T03:51:13.156Z,7.30
2018-12-24T03:53:41.967Z,7.20
2018-12-24T03:56:10.748Z,7.20
2018-12-24T03:58:39.677Z,7.20
2018-12-24T04:01:08.400Z,7.20
2018-12-24T04:03:37.150Z,7.10
2018-12-24T04:06:06.129Z,7.20
2018-12-24T04:08:34.801Z,7.10
2018-12-24T04:11:03.743Z,7.30
2018-12-24T04:13:32.684Z,7.30
2018-12-24T04:16:01.547Z,7.30
2018-12-24T04:18:30.180Z,7.20
2018-12-24T04:20:58.818Z,7.20
2018-12-24T04:23:27.488Z,7.30
2018-12-24T04:25:56.236Z,7.20
2018-12-24T04:28:25.101Z,7.10
2018-12-24T04:30:54.180Z,7.20
2018-12-24T04:33:23.287Z,7.20
2018-12-24T04:35:51.968Z,7.10
2018-12-24T04:38:20.665Z,7.20
2018-12-24T04:40:49.230Z,7.10
2018-12-24T04:43:17.841Z,7.30
2018-12-24T04:45:46.406Z,7.30
2018-12-24T04:48:14.999Z,7.30
2018-12-24T04:50:43.665Z,7.30
2018-12-24T04:53:12.246Z,7.20
2018-12-24T04:55:40.880Z,7.10
2018-12-24T04:58:09.490Z,7.20
2018-12-24T05:00:38.064Z,7.30
2018-12-24T05:03:06.746Z,7.30
2018-12-24T05:05:35.377Z,7.20
2018-12-24T05:08:03.954Z,7.20
2018-12-24T05:10:32.548Z,7.20
2018-12-24T05:13:01.198Z,7.20
2018-12-24T05:15:29.803Z,7.40
2018-12-24T05:17:58.476Z,7.30
2018-12-24T05:20:27.049Z,7.40
2018-12-24T05:22:55.704Z,7.50
2018-12-24T05:25:24.365Z,7.40
2018-12-24T05:27:53.013Z,7.40
2018-12-24T05:30:21.676Z,7.40
2018-12-24T05:32:50.342Z,7.30
2018-12-24T05:35:18.923Z,7.30
2018-12-24T05:37:47.480Z,7.20
2018-12-24T05:40:16.031Z,7.30
2018-12-24T05:42:44.629Z,7.30
2018-12-24T05:45:13.265Z,7.40
2018-12-24T05:47:41.935Z,7.40
2018-12-24T05:50:10.505Z,7.40
2018-12-24T05:52:39.065Z,7.50
2018-12-24T05:55:07.657Z,7.50
2018-12-24T05:57:36.323Z,7.40
2018-12-24T06:00:05.514Z,7.50
2018-12-24T06:02:34.076Z,7.40
2018-12-24T06:05:02.738Z,7.30
2018-12-24T06:07:31.364Z,7.30
2018-12-24T06:09:59.935Z,7.20
2018-12-24T06:12:28.613Z,7.40
2018-12-24T06:14:57.261Z,7.50
2018-12-24T06:17:25.837Z,7.70
2018-12-24T06:19:55.183Z,7.60
2018-12-24T06:22:23.804Z,7.70
2018-12-24T06:24:52.422Z,7.70
2018-12-24T06:27:20.993Z,7.70
2018-12-24T06:29:49.572Z,7.60
2018-12-24T06:32:18.176Z,7.70
2018-12-24T06:34:46.841Z,7.60
2018-12-24T06:37:15.491Z,7.70
2018-12-24T06:39:44.074Z,7.70
2018-12-24T06:42:12.733Z,7.50
2018-12-24T06:44:41.306Z,7.50
2018-12-24T06:47:09.892Z,7.50
2018-12-24T06:49:39.996Z,7.70
2018-12-24T06:52:08.576Z,7.60
2018-12-24T06:54:37.175Z,7.50
2018-12-24T06:57:05.819Z,7.30
2018-12-24T06:59:34.390Z,7.30
2018-12-24T07:02:02.961Z,7.20
2018-12-24T07:04:31.531Z,7.30
2018-12-24T07:07:00.223Z,7.40
2018-12-24T07:09:28.897Z,7.40
2018-12-24T07:11:57.552Z,7.50
2018-12-24T07:14:27.768Z,7.50
2018-12-24T07:16:56.322Z,7.40
2018-12-24T07:19:24.916Z,7.40
2018-12-24T07:21:53.485Z,7.50
2018-12-24T07:24:22.084Z,7.60
2018-12-24T07:26:50.711Z,7.70
2018-12-24T07:29:19.297Z,7.60
2018-12-24T07:31:47.880Z,7.70
2018-12-24T07:34:16.551Z,7.60
2018-12-24T07:36:45.221Z,7.60
2018-12-24T07:39:13.816Z,7.50
2018-12-24T07:41:42.459Z,7.60
2018-12-24T07:44:11.011Z,7.60
2018-12-24T07:46:40.930Z,7.70
2018-12-24T07:49:09.663Z,7.80
2018-12-24T07:51:38.243Z,7.80
2018-12-24T07:54:06.829Z,7.70
2018-12-24T07:56:35.434Z,7.60
2018-12-24T07:59:04.099Z,7.50
2018-12-24T08:01:32.722Z,7.60
2018-12-24T08:04:01.346Z,7.50
2018-12-24T08:06:29.915Z,7.40
2018-12-24T08:08:58.522Z,7.40
2018-12-24T08:11:27.180Z,7.40
2018-12-24T08:13:55.853Z,7.50
2018-12-24T08:16:24.420Z,7.40
2018-12-24T08:18:53.062Z,7.50
2018-12-24T08:21:21.710Z,7.30
2018-12-24T08:23:50.304Z,7.20
2018-12-24T08:26:18.967Z,7.30
2018-12-24T08:28:51.619Z,7.40
2018-12-24T08:31:20.218Z,7.60
2018-12-24T08:33:48.823Z,7.40
2018-12-24T08:36:17.482Z,7.40
2018-12-24T08:38:46.133Z,7.50
2018-12-24T08:41:14.711Z,7.50
2018-12-24T08:43:43.466Z,7.50
2018-12-24T08:46:12.252Z,7.60
2018-12-24T08:48:40.814Z,7.50
2018-12-24T08:51:09.390Z,7.50
2018-12-24T08:53:37.949Z,7.70
2018-12-24T08:56:06.541Z,7.90
2018-12-24T08:58:35.197Z,8.30
2018-12-24T09:01:03.771Z,8.20
2018-12-24T09:03:32.379Z,8.20
2018-12-24T09:06:01.028Z,8.30
2018-12-24T09:08:29.695Z,8.50
2018-12-24T09:10:58.278Z,8.80
2018-12-24T09:13:26.856Z,9.10
2018-12-24T09:15:55.549Z,9.20
2018-12-24T09:18:24.372Z,9.30
2018-12-24T09:20:53.085Z,9.60
2018-12-24T09:23:21.727Z,9.70
2018-12-24T09:25:50.380Z,9.70
2018-12-24T09:28:18.967Z,9.50
2018-12-24T09:30:48.290Z,9.40
2018-12-24T09:33:16.899Z,9.50
2018-12-24T09:35:45.555Z,9.80
2018-12-24T09:38:14.230Z,9.70
2018-12-24T09:40:42.988Z,9.50
2018-12-24T09:43:11.614Z,9.40
2018-12-24T09:45:40.332Z,9.40
2018-12-24T09:48:08.923Z,9.50
2018-12-24T09:50:38.495Z,9.50
2018-12-24T09:53:07.180Z,9.30
2018-12-24T09:55:35.747Z,9.40
2018-12-24T09:58:04.417Z,9.40
2018-12-24T10:00:32.991Z,9.60
2018-12-24T10:03:02.816Z,10.10
2018-12-24T10:05:31.422Z,10.00
2018-12-24T10:08:03.650Z,10.00
2018-12-24T10:10:32.224Z,10.20
2018-12-24T10:13:00.865Z,10.30
2018-12-24T10:15:29.448Z,10.50
2018-12-24T10:17:58.118Z,10.50
2018-12-24T10:20:26.709Z,10.40
2018-12-24T10:22:55.306Z,10.60
2018-12-24T10:25:24.003Z,10.70
2018-12-24T10:27:52.695Z,10.40
2018-12-24T10:30:22.827Z,10.50
2018-12-24T10:32:51.526Z,10.10
2018-12-24T10:35:21.830Z,10.20
2018-12-24T10:37:50.556Z,10.50
2018-12-24T10:40:19.319Z,10.70
2018-12-24T10:42:48.610Z,10.70
2018-12-24T10:45:17.268Z,10.80
2018-12-24T10:47:45.999Z,10.70
2018-12-24T10:50:14.663Z,10.70
2018-12-24T10:52:43.345Z,10.70
2018-12-24T10:55:11.930Z,10.80
2018-12-24T10:57:40.686Z,10.80
2018-12-24T11:00:09.652Z,10.50
2018-12-24T11:02:38.344Z,10.50
2018-12-24T11:05:07.173Z,10.80
2018-12-24T11:07:35.822Z,10.90
2018-12-24T11:10:07.475Z,10.80
2018-12-24T11:12:36.130Z,10.50
2018-12-24T11:15:06.667Z,10.80
2018-12-24T11:17:35.353Z,11.00
2018-12-24T11:20:04.262Z,11.30
2018-12-24T11:22:32.975Z,11.00
2018-12-24T11:25:01.694Z,11.00
2018-12-24T11:27:30.356Z,11.20
2018-12-24T11:29:58.948Z,11.00
2018-12-24T11:32:27.731Z,10.80
2018-12-24T11:34:56.475Z,11.10
2018-12-24T11:37:25.162Z,11.40
2018-12-24T11:39:53.767Z,11.50
2018-12-24T11:42:22.448Z,11.90
2018-12-24T11:44:51.123Z,11.90
2018-12-24T11:47:19.803Z,11.90
2018-12-24T11:49:48.474Z,12.10
2018-12-24T11:52:17.136Z,12.10
2018-12-24T11:54:45.812Z,12.50
2018-12-24T11:57:14.471Z,12.30
2018-12-24T11:59:43.148Z,12.30
2018-12-24T12:02:11.849Z,12.60
2018-12-24T12:04:40.524Z,12.90
2018-12-24T12:07:09.117Z,12.60
2018-12-24T12:09:37.768Z,12.60
2018-12-24T12:12:06.344Z,12.80
2018-12-24T12:14:34.919Z,12.50
2018-12-24T12:17:03.555Z,12.00
2018-12-24T12:19:32.247Z,11.80
2018-12-24T12:22:00.863Z,12.00
2018-12-24T12:24:29.425Z,12.00
2018-12-24T12:26:58.058Z,11.90
2018-12-24T12:29:26.868Z,11.60
2018-12-24T12:31:55.531Z,11.70
2018-12-24T12:34:24.179Z,12.00
2018-12-24T12:36:52.783Z,12.60
2018-12-24T12:39:21.529Z,13.00
2018-12-24T12:41:50.382Z,13.10
2018-12-24T12:44:18.987Z,13.30
2018-12-24T12:46:47.568Z,13.00
2018-12-24T12:49:16.389Z,13.20
2018-12-24T12:51:45.087Z,13.20
2018-12-24T12:54:13.734Z,12.90
2018-12-24T12:56:42.346Z,12.80
2018-12-24T12:59:11.008Z,12.80
2018-12-24T13:01:39.633Z,12.60
2018-12-24T13:04:08.208Z,12.50
2018-12-24T13:06:36.820Z,12.60
2018-12-24T13:09:06.552Z,12.20
2018-12-24T13:11:38.973Z,12.10
2018-12-24T13:14:09.142Z,11.90
2018-12-24T13:16:37.881Z,11.70
2018-12-24T13:19:06.528Z,11.50
2018-12-24T13:21:35.147Z,11.60
2018-12-24T13:24:03.857Z,11.60
2018-12-24T13:26:32.605Z,11.70
2018-12-24T13:29:01.275Z,11.80
2018-12-24T13:31:29.928Z,11.10
2018-12-24T13:33:58.544Z,10.90
2018-12-24T13:36:27.157Z,10.90
2018-12-24T13:38:55.742Z,10.90
2018-12-24T13:41:24.324Z,11.20
2018-12-24T13:43:53.006Z,11.20
2018-12-24T13:46:21.652Z,11.50
2018-12-24T13:48:50.224Z,11.50
2018-12-24T13:51:18.833Z,11.60
2018-12-24T13:53:47.480Z,11.70
2018-12-24T13:56:16.071Z,11.50
2018-12-24T13:58:44.723Z,11.00
2018-12-24T14:03:56.563Z,10.90
2018-12-24T14:06:25.123Z,10.50
2018-12-24T14:08:53.641Z,10.60
2018-12-24T14:11:22.257Z,10.60
2018-12-24T14:13:50.830Z,10.60
2018-12-24T14:16:19.388Z,10.70
2018-12-24T14:18:47.943Z,10.60
2018-12-24T14:21:16.493Z,10.50
2018-12-24T14:23:45.582Z,10.50
2018-12-24T14:26:14.089Z,10.60
2018-12-24T14:28:42.576Z,10.80
2018-12-24T14:31:11.109Z,10.80
2018-12-24T14:33:39.672Z,10.90
2018-12-24T14:36:08.202Z,10.70
2018-12-24T14:38:36.797Z,10.70
2018-12-24T14:41:05.314Z,10.50
2018-12-24T14:43:33.870Z,10.60
2018-12-24T14:46:02.333Z,10.60
2018-12-24T14:48:30.941Z,10.40
2018-12-24T14:50:59.447Z,10.30
2018-12-24T14:53:28.033Z,10.30
2018-12-24T14:55:56.628Z,10.30
2018-12-24T14:58:25.174Z,10.20
2018-12-24T15:00:53.658Z,10.10
2018-12-24T15:03:22.218Z,10.20
2018-12-24T15:05:50.781Z,10.10
2018-12-24T15:08:19.360Z,9.90
2018-12-24T15:10:48.003Z,9.90
2018-12-24T15:13:16.519Z,9.90
2018-12-24T15:15:45.049Z,9.80
2018-12-24T15:18:13.517Z,9.80
2018-12-24T15:20:42.038Z,9.60
2018-12-24T15:23:10.588Z,9.40
2018-12-24T15:25:39.147Z,9.40
2018-12-24T15:28:07.671Z,9.20
2018-12-24T15:30:36.310Z,9.30
2018-12-24T15:33:04.859Z,9.20
2018-12-24T15:35:33.494Z,9.20
2018-12-24T15:38:01.970Z,9.10
2018-12-24T15:40:30.685Z,9.10
2018-12-24T15:42:59.298Z,9.10
2018-12-24T15:45:27.807Z,9.00
2018-12-24T15:47:56.372Z,8.80
2018-12-24T15:50:24.899Z,8.80
2018-12-24T15:52:53.517Z,8.80
2018-12-24T15:55:22.564Z,8.70
2018-12-24T15:57:51.186Z,8.70
2018-12-24T16:00:19.728Z,8.50
2018-12-24T16:02:48.218Z,8.50
2018-12-24T16:05:17.420Z,8.50
2018-12-24T16:07:46.030Z,8.40
2018-12-24T16:10:14.685Z,8.40
2018-12-24T16:12:43.152Z,8.10
2018-12-24T16:15:11.648Z,8.00
2018-12-24T16:17:40.121Z,8.10
2018-12-24T16:20:08.735Z,8.10
2018-12-24T16:22:38.849Z,8.00
2018-12-24T16:25:07.509Z,8.10
2018-12-24T16:27:36.125Z,7.90
2018-12-24T16:30:07.566Z,7.90
2018-12-24T16:32:38.527Z,8.00
2018-12-24T16:35:07.256Z,8.10
2018-12-24T16:37:36.537Z,8.10
2018-12-24T16:40:05.148Z,8.00
2018-12-24T16:42:33.706Z,7.90
2018-12-24T16:45:03.375Z,7.90
2018-12-24T16:47:32.081Z,7.90
2018-12-24T16:50:00.750Z,7.70
2018-12-24T16:52:33.697Z,7.70
2018-12-24T16:55:02.321Z,7.70
2018-12-24T16:57:33.965Z,7.70
2018-12-24T17:00:02.469Z,7.50
2018-12-24T17:02:30.974Z,7.40
2018-12-24T17:04:59.521Z,7.40
2018-12-24T17:07:28.040Z,7.40
2018-12-24T17:09:56.502Z,7.40
2018-12-24T17:12:25.122Z,7.30
2018-12-24T17:14:53.691Z,7.40
2018-12-24T17:17:22.191Z,7.50
2018-12-24T17:19:51.392Z,7.50
2018-12-24T17:22:19.995Z,7.50
2018-12-24T17:24:48.518Z,7.50
2018-12-24T17:27:17.023Z,7.50
2018-12-24T17:29:45.717Z,7.60
2018-12-24T17:32:14.199Z,7.60
2018-12-24T17:34:42.764Z,7.60
2018-12-24T17:37:11.329Z,7.60
2018-12-24T17:39:39.865Z,7.50
2018-12-24T17:42:08.425Z,7.50
2018-12-24T17:44:36.993Z,7.50
2018-12-24T17:47:05.480Z,7.60
2018-12-24T17:49:33.969Z,7.70
2018-12-24T17:52:02.705Z,7.60
2018-12-24T17:54:31.410Z,7.70
2018-12-24T17:57:00.082Z,7.80
2018-12-24T17:59:28.594Z,7.80
2018-12-24T18:01:57.254Z,7.80
2018-12-24T18:04:27.608Z,7.70
2018-12-24T18:06:56.370Z,7.70
2018-12-24T18:09:29.408Z,7.10
2018-12-24T18:11:58.010Z,7.10
2018-12-24T18:14:26.471Z,7.40
2018-12-24T18:16:54.968Z,7.70
2018-12-24T18:19:23.827Z,7.50
2018-12-24T18:21:52.358Z,7.30
2018-12-24T18:24:20.930Z,7.50
2018-12-24T18:26:49.494Z,7.70
2018-12-24T18:29:18.042Z,7.70
2018-12-24T18:31:46.673Z,7.60
2018-12-24T18:34:15.185Z,7.60
2018-12-24T18:36:43.760Z,7.30
2018-12-24T18:39:12.416Z,7.30
2018-12-24T18:41:40.969Z,7.20
2018-12-24T18:44:09.474Z,7.10
2018-12-24T18:46:37.980Z,7.00
2018-12-24T18:49:07.641Z,7.20
2018-12-24T18:51:36.211Z,7.30
2018-12-24T18:54:04.732Z,7.50
2018-12-24T18:56:33.206Z,7.70
2018-12-24T18:59:01.711Z,7.60
2018-12-24T19:01:30.340Z,7.40
2018-12-24T19:03:58.897Z,7.10
2018-12-24T19:06:27.413Z,7.10
2018-12-24T19:08:55.901Z,7.40
2018-12-24T19:11:24.374Z,7.60
2018-12-24T19:13:52.872Z,7.70
2018-12-24T19:16:21.371Z,7.30
2018-12-24T19:18:49.882Z,7.00
2018-12-24T19:21:18.411Z,7.10
2018-12-24T19:23:46.922Z,7.40
2018-12-24T19:26:15.579Z,7.60
2018-12-24T19:28:44.097Z,7.70
2018-12-24T19:31:12.569Z,7.40
2018-12-24T19:33:41.102Z,7.40
2018-12-24T19:36:09.604Z,7.70
2018-12-24T19:38:38.079Z,7.70
2018-12-24T19:41:06.549Z,7.60
2018-12-24T19:43:35.053Z,7.80
2018-12-24T19:46:03.819Z,7.80
2018-12-24T19:48:32.335Z,7.80
2018-12-24T19:51:00.853Z,7.80
2018-12-24T19:53:29.313Z,7.70
2018-12-24T19:55:57.856Z,7.80
2018-12-24T19:58:26.342Z,7.50
2018-12-24T20:00:54.873Z,7.40
2018-12-24T20:03:23.376Z,7.50
2018-12-24T20:05:51.852Z,7.40
2018-12-24T20:08:20.340Z,7.70
2018-12-24T20:10:48.790Z,7.90
2018-12-24T20:13:17.263Z,7.90
2018-12-24T20:15:45.740Z,8.00
2018-12-24T20:18:14.266Z,7.60
2018-12-24T20:20:42.786Z,7.20
2018-12-24T20:23:11.301Z,7.20
2018-12-24T20:25:39.758Z,7.50
2018-12-24T20:28:08.279Z,7.80
2018-12-24T20:30:36.814Z,7.80
2018-12-24T20:33:05.283Z,7.90
2018-12-24T20:35:33.757Z,7.80
2018-12-24T20:38:02.231Z,7.80
2018-12-24T20:40:30.783Z,8.10
2018-12-24T20:42:59.396Z,8.00
2018-12-24T20:45:27.927Z,8.00
2018-12-24T20:47:56.424Z,7.90
2018-12-24T20:50:24.886Z,7.60
2018-12-24T20:52:53.412Z,7.30
2018-12-24T20:55:21.899Z,7.30
2018-12-24T20:57:50.466Z,7.20
2018-12-24T21:00:18.927Z,7.20
2018-12-24T21:02:47.412Z,7.20
2018-12-24T21:05:15.900Z,7.20
2018-12-24T21:07:44.376Z,7.50
2018-12-24T21:10:13.005Z,7.60
2018-12-24T21:12:41.690Z,7.40
2018-12-24T21:15:10.241Z,7.20
2018-12-24T21:17:38.750Z,7.10
2018-12-24T21:20:07.659Z,7.40
2018-12-24T21:22:36.211Z,7.40
2018-12-24T21:25:05.202Z,7.60
2018-12-24T21:27:33.776Z,7.60
2018-12-24T21:30:02.258Z,7.40
2018-12-24T21:32:30.743Z,7.40
2018-12-24T21:34:59.294Z,7.40
2018-12-24T21:37:27.852Z,7.20
2018-12-24T21:39:56.421Z,7.20
2018-12-24T21:42:25.757Z,7.40
2018-12-24T21:44:54.609Z,7.40
2018-12-24T21:47:23.271Z,7.20
2018-12-24T21:49:53.285Z,7.20
2018-12-24T21:52:21.777Z,7.50
2018-12-24T21:54:50.319Z,7.50
2018-12-24T21:57:18.856Z,7.40
2018-12-24T21:59:47.392Z,7.10
2018-12-24T22:02:15.861Z,7.10
2018-12-24T22:04:44.405Z,7.20
2018-12-24T22:07:12.900Z,7.30
2018-12-24T22:09:41.379Z,7.50
2018-12-24T22:12:09.920Z,7.60
2018-12-24T22:14:38.415Z,7.70
2018-12-24T22:17:06.970Z,7.70
2018-12-24T22:19:35.455Z,7.80
2018-12-24T22:22:04.129Z,7.70
2018-12-24T22:24:32.610Z,7.80
2018-12-24T22:27:01.171Z,8.00
2018-12-24T22:29:29.634Z,7.70
2018-12-24T22:31:58.110Z,7.70
2018-12-24T22:34:26.664Z,7.40
2018-12-24T22:36:55.131Z,7.20
2018-12-24T22:39:23.656Z,7.50
2018-12-24T22:41:52.197Z,7.70
2018-12-24T22:44:20.765Z,7.80
2018-12-24T22:46:49.348Z,7.60
2018-12-24T22:49:18.087Z,7.20
2018-12-24T22:51:46.564Z,6.90
2018-12-24T22:54:15.069Z,7.00
2018-12-24T22:56:43.653Z,7.00
2018-12-24T22:59:15.051Z,7.10
2018-12-24T23:01:43.551Z,7.00
2018-12-24T23:04:12.071Z,6.80
2018-12-24T23:06:40.597Z,6.60
2018-12-24T23:09:09.218Z,6.50
2018-12-24T23:11:37.826Z,6.60
2018-12-24T23:14:06.381Z,6.70
2018-12-24T23:16:36.466Z,6.90
2018-12-24T23:19:04.965Z,6.60
2018-12-24T23:21:33.509Z,6.60
2018-12-24T23:24:02.072Z,6.70
2018-12-24T23:26:30.547Z,6.90
2018-12-24T23:28:59.052Z,7.10
2018-12-24T23:31:27.592Z,7.20
2018-12-24T23:33:56.080Z,7.10
2018-12-24T23:36:24.614Z,7.00
2018-12-24T23:38:53.240Z,7.20
2018-12-24T23:41:21.801Z,7.30
2018-12-24T23:43:50.286Z,6.90
2018-12-24T23:46:18.768Z,6.60
2018-12-24T23:48:47.282Z,6.40
2018-12-24T23:51:15.741Z,6.30
2018-12-24T23:53:44.255Z,6.40
2018-12-24T23:56:12.826Z,6.30
2018-12-24T23:58:41.382Z,6.60
